createdAt,value
2023-08-29T10:02:01.548Z,72.53
2023-08-29T10:03:01.599Z,71.39
2023-08-29T10:04:01.449Z,71.49
2023-08-29T10:05:01.428Z,68.79
2023-08-29T10:06:01.437Z,68.82
2023-08-29T10:07:01.420Z,70.19
2023-08-29T10:08:01.388Z,70.59
2023-08-29T10:09:01.377Z,73.30
2023-08-29T10:10:01.377Z,72.09
2023-08-29T10:11:01.365Z,69.26
2023-08-29T10:12:01.353Z,69.16
2023-08-29T10:13:01.322Z,69.56
2023-08-29T10:14:01.341Z,69.46
2023-08-29T10:15:01.299Z,70.79
2023-08-29T10:16:01.292Z,72.89
2023-08-29T10:17:03.099Z,69.99
2023-08-29T10:18:01.292Z,72.80
2023-08-29T10:19:01.245Z,71.30
2023-08-29T10:20:01.262Z,70.93
2023-08-29T10:21:03.661Z,74.13
2023-08-29T10:22:01.222Z,72.83
2023-08-29T10:23:01.185Z,71.73
2023-08-29T10:24:01.179Z,76.70
2023-08-29T10:25:01.170Z,71.36
2023-08-29T10:26:01.167Z,74.13
2023-08-29T10:27:01.139Z,74.43
2023-08-29T10:28:01.157Z,74.03
2023-08-29T10:29:01.112Z,73.72
2023-08-29T10:30:01.117Z,71.49
2023-08-29T10:31:01.175Z,69.53
2023-08-29T10:32:01.084Z,70.79
2023-08-29T10:33:01.117Z,70.50
2023-08-29T10:34:01.055Z,71.19
2023-08-29T10:35:01.050Z,71.00
2023-08-29T10:36:01.037Z,71.12
2023-08-29T10:37:01.036Z,70.73
2023-08-29T10:38:01.006Z,73.23
2023-08-29T10:39:00.980Z,72.93
2023-08-29T10:40:00.978Z,72.56
2023-08-29T10:41:00.949Z,73.47
2023-08-29T10:42:00.955Z,72.40
2023-08-29T10:43:00.923Z,74.47
2023-08-29T10:44:00.932Z,73.27
2023-08-29T10:45:00.910Z,72.66
2023-08-29T10:46:00.911Z,70.36
2023-08-29T10:47:00.885Z,71.56
2023-08-29T10:48:00.889Z,71.39
2023-08-29T10:49:00.857Z,71.80
2023-08-29T10:50:00.903Z,72.86
2023-08-29T10:51:00.825Z,72.16
2023-08-29T10:52:00.814Z,72.27
2023-08-29T10:53:00.791Z,73.57
2023-08-29T10:54:00.799Z,74.17
2023-08-29T10:55:00.768Z,71.56
2023-08-29T10:56:00.762Z,74.47
2023-08-29T10:57:00.796Z,72.36
2023-08-29T10:58:00.733Z,73.30
2023-08-29T10:59:00.731Z,74.67
2023-08-29T11:00:00.704Z,75.67
2023-08-29T11:01:00.734Z,73.53
2023-08-29T11:02:07.757Z,73.43
2023-08-29T11:03:00.706Z,71.53
2023-08-29T11:04:00.730Z,69.49
2023-08-29T11:05:00.675Z,68.16
2023-08-29T11:06:00.713Z,66.66
2023-08-29T11:07:00.637Z,67.63
2023-08-29T11:08:00.636Z,66.89
2023-08-29T11:09:00.587Z,66.39
2023-08-29T11:10:00.581Z,66.53
2023-08-29T11:11:00.557Z,68.83
2023-08-29T11:12:00.548Z,65.37
2023-08-29T11:13:00.539Z,62.72
2023-08-29T11:14:00.527Z,61.10
2023-08-29T11:15:00.518Z,59.75
2023-08-29T11:16:00.498Z,61.44
2023-08-29T11:17:00.484Z,61.74
2023-08-29T11:18:00.539Z,65.42
2023-08-29T11:19:00.450Z,64.25
2023-08-29T11:20:00.444Z,62.26
2023-08-29T11:21:00.425Z,63.21
2023-08-29T11:22:00.429Z,65.31
2023-08-29T11:23:00.404Z,65.80
2023-08-29T11:24:15.060Z,63.65
2023-08-29T11:25:01.389Z,62.42
2023-08-29T11:26:00.381Z,59.78
2023-08-29T11:27:00.366Z,57.71
2023-08-29T11:28:00.340Z,60.73
2023-08-29T11:29:00.331Z,61.16
2023-08-29T11:30:16.540Z,60.73
2023-08-29T11:31:01.327Z,60.40
2023-08-29T11:32:00.282Z,60.47
2023-08-29T11:33:00.296Z,57.86
2023-08-29T11:34:00.257Z,60.42
2023-08-29T11:35:00.249Z,64.76
2023-08-29T11:36:00.244Z,60.71
2023-08-29T11:37:00.220Z,59.51
2023-08-29T11:38:00.204Z,60.52
2023-08-29T11:39:00.191Z,64.27
2023-08-29T11:40:00.204Z,65.73
2023-08-29T11:41:17.202Z,65.56
2023-08-29T11:42:11.598Z,66.09
2023-08-29T11:43:30.975Z,67.66
2023-08-29T11:44:49.635Z,70.39
2023-08-29T11:45:26.314Z,70.16
2023-08-29T11:46:01.236Z,70.69
2023-08-29T11:47:00.086Z,71.43
2023-08-29T11:48:00.098Z,73.74
2023-08-29T11:49:00.070Z,74.74
2023-08-29T11:50:00.078Z,74.34
2023-08-29T11:51:00.036Z,74.04
2023-08-29T11:52:00.041Z,72.24
2023-08-29T11:53:00.013Z,71.93
2023-08-29T11:53:59.992Z,71.63
2023-08-29T11:54:59.994Z,71.43
2023-08-29T11:55:59.960Z,72.83
2023-08-29T11:56:59.952Z,72.33
2023-08-29T11:57:59.949Z,75.95
2023-08-29T11:58:59.938Z,75.84
2023-08-29T11:59:59.916Z,74.14
2023-08-29T12:00:59.906Z,72.97
2023-08-29T12:01:59.902Z,74.27
2023-08-29T12:02:59.897Z,75.88
2023-08-29T12:03:59.882Z,74.77
2023-08-29T12:04:59.851Z,72.17
2023-08-29T12:05:59.843Z,72.56
2023-08-29T12:06:59.818Z,74.27
2023-08-29T12:07:59.800Z,75.18
2023-08-29T12:09:01.132Z,73.87
2023-08-29T12:09:59.778Z,74.01
2023-08-29T12:10:59.773Z,74.91
2023-08-29T12:11:59.748Z,73.10
2023-08-29T12:12:59.757Z,73.71
2023-08-29T12:13:59.735Z,75.51
2023-08-29T12:14:59.759Z,74.91
2023-08-29T12:15:59.705Z,74.21
2023-08-29T12:16:59.697Z,74.37
2023-08-29T12:17:59.746Z,74.98
2023-08-29T12:18:59.670Z,74.18
2023-08-29T12:19:59.645Z,74.18
2023-08-29T12:21:01.064Z,75.08
2023-08-29T12:21:59.627Z,74.98
2023-08-29T12:22:59.628Z,72.53
2023-08-29T12:23:59.594Z,73.13
2023-08-29T12:24:59.751Z,73.33
2023-08-29T12:25:59.571Z,74.24
2023-08-29T12:26:59.573Z,72.33
2023-08-29T12:27:59.560Z,71.93
2023-08-29T12:28:59.539Z,73.44
2023-08-29T12:29:59.514Z,73.94
2023-08-29T12:30:59.605Z,74.01
2023-08-29T12:31:59.508Z,72.20
2023-08-29T12:32:59.536Z,73.30
2023-08-29T12:33:59.467Z,72.80
2023-08-29T12:34:59.459Z,74.51
2023-08-29T12:35:59.449Z,72.00
2023-08-29T12:36:59.447Z,72.20
2023-08-29T12:37:59.423Z,72.56
2023-08-29T12:38:59.400Z,74.37
2023-08-29T12:39:59.385Z,74.03
2023-08-29T12:40:59.400Z,73.63
2023-08-29T12:41:59.363Z,71.93
2023-08-29T12:42:59.346Z,71.83
2023-08-29T12:43:59.331Z,69.93
2023-08-29T12:44:59.885Z,69.02
2023-08-29T12:46:00.609Z,68.65
2023-08-29T12:46:59.297Z,69.66
2023-08-29T12:47:59.329Z,71.56
2023-08-29T12:48:59.276Z,68.05
2023-08-29T12:49:59.261Z,70.19
2023-08-29T12:50:59.258Z,71.09
2023-08-29T12:51:59.236Z,71.46
2023-08-29T12:52:59.222Z,72.06
2023-08-29T12:53:59.205Z,70.16
2023-08-29T12:54:59.206Z,67.82
2023-08-29T12:55:59.183Z,66.52
2023-08-29T12:56:59.180Z,66.39
2023-08-29T12:57:59.150Z,67.89
2023-08-29T12:58:59.138Z,70.09
2023-08-29T12:59:59.142Z,70.59
2023-08-29T13:00:59.126Z,71.30
2023-08-29T13:01:59.156Z,69.39
2023-08-29T13:02:59.148Z,67.96
2023-08-29T13:03:59.068Z,66.46
2023-08-29T13:04:59.071Z,66.82
2023-08-29T13:05:59.046Z,70.53
2023-08-29T13:06:59.034Z,67.72
2023-08-29T13:07:59.017Z,67.86
2023-08-29T13:08:59.023Z,69.06
2023-08-29T13:09:59.005Z,70.26
2023-08-29T13:10:58.983Z,67.79
2023-08-29T13:11:58.963Z,70.23
2023-08-29T13:12:58.973Z,71.43
2023-08-29T13:13:58.949Z,69.32
2023-08-29T13:14:58.925Z,67.82
2023-08-29T13:15:58.981Z,68.22
2023-08-29T13:16:58.910Z,67.99
2023-08-29T13:17:58.910Z,70.59
2023-08-29T13:18:58.890Z,71.59
2023-08-29T13:19:58.859Z,72.30
2023-08-29T13:20:58.852Z,69.26
2023-08-29T13:21:58.850Z,68.96
2023-08-29T13:22:58.833Z,67.22
2023-08-29T13:23:58.810Z,68.13
2023-08-29T13:24:58.794Z,67.22
2023-08-29T13:25:58.782Z,67.52
2023-08-29T13:26:58.783Z,65.69
2023-08-29T13:27:58.760Z,66.09
2023-08-29T13:28:58.769Z,65.89
2023-08-29T13:29:58.728Z,69.36
2023-08-29T13:30:58.719Z,68.49
2023-08-29T13:31:58.726Z,66.27
2023-08-29T13:32:58.755Z,64.57
2023-08-29T13:33:58.681Z,61.47
2023-08-29T13:34:58.668Z,63.54
2023-08-29T13:35:58.660Z,65.67
2023-08-29T13:36:58.673Z,66.14
2023-08-29T13:37:58.631Z,63.42
2023-08-29T13:38:58.610Z,61.93
2023-08-29T13:39:58.596Z,61.46
2023-08-29T13:40:58.584Z,62.21
2023-08-29T13:41:58.580Z,63.54
2023-08-29T13:42:58.563Z,63.07
2023-08-29T13:43:58.542Z,63.67
2023-08-29T13:44:58.532Z,61.98
2023-08-29T13:45:58.559Z,62.67
2023-08-29T13:46:58.547Z,63.34
2023-08-29T13:47:58.569Z,63.21
2023-08-29T13:48:58.502Z,65.08
2023-08-29T13:49:58.465Z,62.59
2023-08-29T13:50:58.465Z,60.49
2023-08-29T13:52:00.850Z,66.17
2023-08-29T13:52:58.425Z,63.22
2023-08-29T13:53:58.423Z,61.99
2023-08-29T13:54:58.454Z,60.30
2023-08-29T13:55:58.397Z,61.93
2023-08-29T13:56:58.378Z,63.15
2023-08-29T13:57:58.357Z,61.99
2023-08-29T13:58:58.354Z,59.64
2023-08-29T13:59:58.342Z,61.09
2023-08-29T14:00:58.370Z,60.29
2023-08-29T14:01:58.308Z,62.26
2023-08-29T14:02:58.375Z,61.13
2023-08-29T14:03:58.316Z,60.56
2023-08-29T14:04:58.289Z,61.09
2023-08-29T14:05:58.261Z,62.26
2023-08-29T14:06:58.243Z,65.21
2023-08-29T14:07:58.230Z,58.57
2023-08-29T14:08:58.218Z,61.47
2023-08-29T14:09:58.220Z,63.23
2023-08-29T14:10:58.188Z,65.79
2023-08-29T14:11:58.177Z,66.69
2023-08-29T14:12:58.172Z,66.39
2023-08-29T14:13:58.158Z,66.79
2023-08-29T14:14:58.150Z,65.29
2023-08-29T14:15:58.192Z,63.92
2023-08-29T14:16:58.110Z,65.75
2023-08-29T14:17:58.129Z,66.86
2023-08-29T14:18:58.094Z,65.99
2023-08-29T14:19:58.242Z,66.16
2023-08-29T14:20:58.058Z,65.83
2023-08-29T14:21:58.057Z,67.72
2023-08-29T14:22:58.034Z,66.75
2023-08-29T14:23:58.044Z,67.72
2023-08-29T14:24:58.007Z,66.82
2023-08-29T14:25:58.146Z,66.55
2023-08-29T14:26:57.989Z,67.82
2023-08-29T14:27:57.987Z,67.69
2023-08-29T14:28:57.971Z,66.86
2023-08-29T14:29:57.953Z,68.62
2023-08-29T14:30:57.968Z,68.02
2023-08-29T14:31:57.925Z,64.95
2023-08-29T14:32:57.946Z,65.39
2023-08-29T14:33:57.890Z,66.46
2023-08-29T14:34:57.870Z,70.43
2023-08-29T14:35:57.881Z,66.49
2023-08-29T14:36:57.843Z,70.66
2023-08-29T14:37:57.854Z,64.33
2023-08-29T14:39:00.440Z,64.90
2023-08-29T14:39:57.822Z,63.67
2023-08-29T14:40:57.799Z,62.87
2023-08-29T14:41:57.839Z,61.80
2023-08-29T14:42:57.781Z,61.98
2023-08-29T14:43:57.766Z,60.62
2023-08-29T14:44:57.739Z,59.99
2023-08-29T14:45:57.729Z,61.09
2023-08-29T14:46:57.786Z,59.27
2023-08-29T14:47:57.739Z,58.71
2023-08-29T14:48:57.692Z,57.43
2023-08-29T14:49:57.691Z,58.47
2023-08-29T14:50:57.660Z,55.61
2023-08-29T14:51:57.678Z,55.21
2023-08-29T14:52:57.636Z,54.57
2023-08-29T14:53:57.631Z,53.92
2023-08-29T14:54:57.612Z,54.17
2023-08-29T14:55:57.610Z,55.89
2023-08-29T14:56:57.591Z,55.69
2023-08-29T14:57:57.594Z,55.25
2023-08-29T14:58:57.559Z,56.81
2023-08-29T14:59:57.549Z,54.38
2023-08-29T15:00:57.662Z,53.83
2023-08-29T15:01:57.522Z,55.54
2023-08-29T15:02:57.691Z,55.15
2023-08-29T15:03:57.681Z,54.57
2023-08-29T15:04:57.493Z,55.12
2023-08-29T15:05:57.487Z,56.07
2023-08-29T15:06:57.463Z,57.77
2023-08-29T15:07:57.464Z,60.59
2023-08-29T15:08:57.430Z,60.46
2023-08-29T15:09:57.422Z,60.39
2023-08-29T15:10:57.422Z,61.77
2023-08-29T15:11:57.395Z,61.73
2023-08-29T15:12:57.393Z,62.76
2023-08-29T15:13:57.374Z,63.39
2023-08-29T15:14:57.365Z,64.62
2023-08-29T15:15:57.394Z,66.13
2023-08-29T15:16:57.332Z,67.69
2023-08-29T15:17:57.361Z,67.29
2023-08-29T15:18:57.303Z,65.99
2023-08-29T15:19:57.300Z,66.89
2023-08-29T15:20:57.283Z,70.09
2023-08-29T15:21:57.278Z,67.96
2023-08-29T15:22:57.255Z,69.36
2023-08-29T15:23:57.263Z,68.46
2023-08-29T15:24:57.241Z,67.86
2023-08-29T15:25:57.215Z,68.16
2023-08-29T15:26:57.199Z,66.56
2023-08-29T15:27:57.198Z,67.06
2023-08-29T15:28:57.184Z,67.76
2023-08-29T15:29:57.171Z,70.36
2023-08-29T15:30:57.149Z,72.76
2023-08-29T15:31:57.172Z,69.56
2023-08-29T15:32:57.162Z,68.96
2023-08-29T15:33:57.180Z,65.76
2023-08-29T15:34:57.108Z,66.69
2023-08-29T15:35:57.095Z,66.39
2023-08-29T15:36:57.064Z,66.69
2023-08-29T15:37:57.064Z,66.32
2023-08-29T15:38:57.057Z,65.99
2023-08-29T15:39:57.032Z,63.33
2023-08-29T15:40:57.017Z,61.93
2023-08-29T15:41:57.001Z,62.13
2023-08-29T15:42:57.000Z,61.57
2023-08-29T15:43:56.985Z,64.37
2023-08-29T15:44:56.975Z,60.11
2023-08-29T15:45:57.023Z,57.26
2023-08-29T15:46:56.936Z,59.17
2023-08-29T15:47:56.989Z,62.88
2023-08-29T15:48:56.920Z,59.78
2023-08-29T15:49:56.914Z,56.85
2023-08-29T15:50:56.914Z,54.85
2023-08-29T15:51:56.892Z,56.97
2023-08-29T15:52:56.913Z,54.10
2023-08-29T15:53:56.842Z,53.60
2023-08-29T15:54:56.862Z,52.81
2023-08-29T15:55:56.822Z,53.45
2023-08-29T15:56:56.842Z,54.47
2023-08-29T15:57:56.834Z,55.62
2023-08-29T15:58:56.780Z,55.55
2023-08-29T15:59:56.769Z,57.69
2023-08-29T16:00:56.756Z,57.69
2023-08-29T16:01:56.781Z,57.82
2023-08-29T16:02:56.844Z,57.49
2023-08-29T16:03:56.728Z,58.14
2023-08-29T16:04:56.731Z,57.09
2023-08-29T16:05:56.693Z,56.27
2023-08-29T16:06:56.705Z,58.20
2023-08-29T16:07:56.662Z,56.04
2023-08-29T16:08:58.550Z,57.17
2023-08-29T16:09:56.648Z,53.25
2023-08-29T16:10:56.650Z,50.88
2023-08-29T16:11:56.620Z,51.82
2023-08-29T16:12:56.624Z,55.39
2023-08-29T16:13:56.587Z,54.17
2023-08-29T16:14:56.572Z,55.74
2023-08-29T16:15:56.575Z,57.69
2023-08-29T16:16:56.582Z,59.04
2023-08-29T16:17:56.677Z,62.29
2023-08-29T16:18:56.546Z,63.84
2023-08-29T16:19:56.506Z,65.56
2023-08-29T16:20:56.508Z,64.20
2023-08-29T16:21:56.489Z,63.23
2023-08-29T16:22:56.482Z,63.93
2023-08-29T16:23:56.464Z,69.36
2023-08-29T16:24:56.459Z,68.86
2023-08-29T16:25:56.445Z,66.79
2023-08-29T16:26:56.426Z,66.89
2023-08-29T16:27:56.410Z,64.30
2023-08-29T16:28:56.397Z,63.94
2023-08-29T16:29:56.388Z,62.78
2023-08-29T16:30:56.391Z,61.83
2023-08-29T16:31:56.353Z,59.70
2023-08-29T16:32:56.393Z,58.51
2023-08-29T16:33:56.339Z,59.96
2023-08-29T16:34:56.326Z,61.82
2023-08-29T16:35:56.298Z,61.21
2023-08-29T16:36:56.299Z,62.56
2023-08-29T16:37:56.294Z,59.47
2023-08-29T16:38:56.276Z,62.34
2023-08-29T16:39:56.262Z,63.27
2023-08-29T16:40:56.250Z,64.54
2023-08-29T16:41:56.227Z,66.43
2023-08-29T16:42:56.215Z,67.33
2023-08-29T16:43:56.214Z,67.83
2023-08-29T16:44:56.217Z,65.80
2023-08-29T16:45:56.184Z,66.93
2023-08-29T16:46:56.229Z,66.29
2023-08-29T16:47:56.187Z,68.52
2023-08-29T16:48:56.158Z,69.36
2023-08-29T16:49:56.130Z,71.36
2023-08-29T16:50:56.119Z,73.30
2023-08-29T16:51:57.673Z,73.80
2023-08-29T16:52:56.088Z,74.63
2023-08-29T16:53:56.091Z,74.84
2023-08-29T16:54:56.099Z,74.07
2023-08-29T16:55:56.059Z,74.37
2023-08-29T16:56:56.037Z,75.27
2023-08-29T16:57:57.897Z,74.51
2023-08-29T16:58:56.023Z,75.01
2023-08-29T16:59:55.989Z,76.34
2023-08-29T17:00:56.022Z,77.65
2023-08-29T17:01:55.966Z,79.05
2023-08-29T17:03:03.059Z,79.36
2023-08-29T17:03:56.127Z,78.19
2023-08-29T17:04:55.934Z,77.09
2023-08-29T17:05:55.919Z,78.89
2023-08-29T17:06:55.903Z,79.29
2023-08-29T17:07:55.906Z,78.99
2023-08-29T17:08:55.881Z,79.80
2023-08-29T17:09:55.880Z,78.79
2023-08-29T17:10:55.846Z,79.39
2023-08-29T17:11:55.860Z,79.99
2023-08-29T17:12:55.836Z,80.63
2023-08-29T17:13:55.836Z,80.63
2023-08-29T17:14:55.835Z,81.54
2023-08-29T17:15:55.828Z,79.03
2023-08-29T17:16:55.785Z,77.92
2023-08-29T17:17:55.860Z,80.43
2023-08-29T17:18:55.752Z,81.84
2023-08-29T17:19:55.745Z,81.78
2023-08-29T17:20:55.716Z,81.48
2023-08-29T17:21:55.720Z,83.39
2023-08-29T17:22:55.686Z,81.78
2023-08-29T17:23:55.683Z,81.72
2023-08-29T17:24:55.669Z,81.82
2023-08-29T17:25:55.693Z,82.02
2023-08-29T17:26:55.654Z,82.26
2023-08-29T17:27:55.654Z,82.06
2023-08-29T17:28:55.626Z,83.26
2023-08-29T17:29:55.612Z,83.47
2023-08-29T17:30:55.596Z,83.91
2023-08-29T17:31:55.597Z,84.31
2023-08-29T17:32:55.632Z,84.31
2023-08-29T17:33:55.559Z,84.55
2023-08-29T17:34:55.535Z,84.45
2023-08-29T17:35:55.546Z,84.35
2023-08-29T17:36:55.503Z,84.29
2023-08-29T17:37:55.521Z,85.20
2023-08-29T17:38:55.477Z,84.80
2023-08-29T17:39:55.492Z,84.59
2023-08-29T17:40:55.472Z,85.10
2023-08-29T17:41:55.447Z,85.54
2023-08-29T17:42:55.440Z,85.74
2023-08-29T17:43:55.426Z,85.03
2023-08-29T17:44:55.403Z,85.68
2023-08-29T17:45:55.409Z,85.88
2023-08-29T17:46:55.392Z,86.18
2023-08-29T17:47:55.430Z,86.33
2023-08-29T17:48:55.343Z,86.53
2023-08-29T17:49:55.345Z,86.73
2023-08-29T17:50:55.322Z,86.93
2023-08-29T17:51:55.310Z,87.03
2023-08-29T17:52:55.304Z,87.54
2023-08-29T17:53:55.291Z,87.84
2023-08-29T17:54:55.279Z,88.34
2023-08-29T17:55:55.263Z,88.04
2023-08-29T17:56:55.247Z,88.24
2023-08-29T17:57:55.228Z,88.39
2023-08-29T17:58:55.231Z,88.28
2023-08-29T17:59:55.290Z,88.79
2023-08-29T18:00:55.196Z,88.79
2023-08-29T18:01:55.270Z,89.34
2023-08-29T18:02:55.256Z,89.34
2023-08-29T18:03:55.185Z,89.23
2023-08-29T18:04:55.137Z,89.03
2023-08-29T18:05:56.689Z,89.34
2023-08-29T18:06:56.109Z,89.74
2023-08-29T18:07:55.106Z,90.04
2023-08-29T18:08:55.190Z,90.39
2023-08-29T18:09:55.068Z,90.59
2023-08-29T18:10:55.062Z,90.49
2023-08-29T18:11:55.059Z,90.59
2023-08-29T18:12:55.054Z,90.49
2023-08-29T18:13:55.036Z,90.69
2023-08-29T18:14:55.008Z,90.99
2023-08-29T18:15:55.038Z,91.50
2023-08-29T18:16:55.058Z,91.70
2023-08-29T18:17:55.048Z,91.70
2023-08-29T18:18:54.951Z,91.70
2023-08-29T18:19:54.938Z,91.94
2023-08-29T18:20:54.958Z,92.14
2023-08-29T18:21:54.933Z,92.35
2023-08-29T18:22:54.919Z,92.65
2023-08-29T18:23:54.894Z,92.69
2023-08-29T18:24:54.882Z,93.00
2023-08-29T18:25:54.860Z,93.10
2023-08-29T18:26:54.893Z,93.60
2023-08-29T18:27:54.871Z,93.60
2023-08-29T18:28:54.828Z,93.20
2023-08-29T18:29:54.811Z,93.40
2023-08-29T18:30:54.793Z,93.10
2023-08-29T18:31:54.836Z,93.10
2023-08-29T18:32:54.777Z,93.71
2023-08-29T18:33:54.750Z,93.75
2023-08-29T18:34:54.737Z,93.75
2023-08-29T18:35:54.732Z,93.35
2023-08-29T18:36:54.735Z,93.24
2023-08-29T18:37:54.711Z,93.15
2023-08-29T18:38:54.680Z,92.94
2023-08-29T18:39:54.682Z,92.84
2023-08-29T18:40:54.658Z,91.83
2023-08-29T18:41:54.658Z,91.93
2023-08-29T18:42:54.631Z,92.03
2023-08-29T18:43:54.641Z,92.18
2023-08-29T18:44:54.621Z,92.48
2023-08-29T18:45:54.742Z,92.58
2023-08-29T18:46:54.594Z,92.28
2023-08-29T18:47:54.603Z,92.48
2023-08-29T18:48:54.556Z,92.58
2023-08-29T18:49:54.551Z,92.63
2023-08-29T18:50:54.540Z,92.83
2023-08-29T18:51:54.519Z,92.83
2023-08-29T18:52:54.499Z,92.52
2023-08-29T18:53:54.515Z,92.72
2023-08-29T18:54:54.470Z,92.83
2023-08-29T18:55:54.481Z,92.72
2023-08-29T18:56:54.469Z,92.36
2023-08-29T18:57:54.435Z,92.72
2023-08-29T18:58:54.421Z,92.93
2023-08-29T18:59:54.421Z,93.54
2023-08-29T19:00:54.402Z,93.43
2023-08-29T19:01:54.390Z,93.74
2023-08-29T19:02:54.407Z,93.78
2023-08-29T19:03:54.361Z,93.68
2023-08-29T19:04:54.358Z,93.88
2023-08-29T19:05:54.349Z,93.99
2023-08-29T19:06:54.312Z,94.39
2023-08-29T19:07:54.303Z,94.49
2023-08-29T19:08:54.313Z,94.19
2023-08-29T19:09:54.296Z,94.59
2023-08-29T19:10:54.264Z,94.70
2023-08-29T19:11:54.246Z,94.70
2023-08-29T19:12:54.239Z,94.90
2023-08-29T19:13:54.235Z,94.94
2023-08-29T19:14:54.224Z,94.84
2023-08-29T19:15:54.217Z,95.14
2023-08-29T19:16:54.196Z,95.45
2023-08-29T19:17:54.214Z,95.75
2023-08-29T19:18:54.204Z,96.06
2023-08-29T19:19:54.156Z,96.46
2023-08-29T19:20:54.125Z,96.51
2023-08-29T19:21:54.119Z,96.71
2023-08-29T19:22:54.149Z,96.91
2023-08-29T19:23:54.599Z,97.02
2023-08-29T19:24:54.097Z,97.11
2023-08-29T19:25:54.065Z,97.42
2023-08-29T19:26:54.056Z,97.52
2023-08-29T19:27:54.044Z,97.42
2023-08-29T19:28:54.057Z,97.32
2023-08-29T19:29:54.011Z,97.11
2023-08-29T19:30:53.989Z,97.22
2023-08-29T19:31:53.989Z,97.52
2023-08-29T19:32:54.489Z,97.62
2023-08-29T19:33:53.960Z,97.83
2023-08-29T19:34:53.951Z,97.83
2023-08-29T19:35:53.935Z,97.47
2023-08-29T19:36:53.904Z,97.47
2023-08-29T19:37:53.922Z,97.87
2023-08-29T19:38:59.050Z,97.77
2023-08-29T19:39:54.869Z,97.36
2023-08-29T19:40:53.857Z,97.26
2023-08-29T19:41:53.887Z,96.96
2023-08-29T19:42:53.855Z,96.96
2023-08-29T19:43:53.828Z,97.11
2023-08-29T19:44:53.801Z,97.31
2023-08-29T19:45:53.795Z,97.51
2023-08-29T19:46:53.817Z,97.81
2023-08-29T19:47:53.810Z,98.22
2023-08-29T19:48:53.742Z,98.43
2023-08-29T19:49:53.737Z,98.52
2023-08-29T19:50:53.724Z,98.63
2023-08-29T19:51:53.723Z,98.77
2023-08-29T19:52:53.697Z,98.97
2023-08-29T19:53:53.693Z,99.08
2023-08-29T19:54:53.768Z,99.08
2023-08-29T19:55:53.677Z,98.97
2023-08-29T19:56:53.663Z,99.08
2023-08-29T19:57:53.624Z,99.28
2023-08-29T19:58:53.637Z,99.38
2023-08-29T19:59:53.605Z,99.33
2023-08-29T20:00:53.614Z,99.13
2023-08-29T20:01:53.608Z,98.83
2023-08-29T20:02:53.572Z,98.57
2023-08-29T20:03:53.559Z,98.47
2023-08-29T20:04:53.542Z,98.57
2023-08-29T20:05:53.542Z,98.68
2023-08-29T20:06:53.495Z,98.88
2023-08-29T20:07:53.886Z,99.18
2023-08-29T20:08:53.473Z,99.28
2023-08-29T20:09:53.488Z,99.18
2023-08-29T20:10:53.469Z,99.28
2023-08-29T20:11:53.437Z,99.49
2023-08-29T20:12:53.431Z,99.69
2023-08-29T20:13:53.426Z,99.79
2023-08-29T20:14:53.425Z,99.89
2023-08-29T20:15:53.384Z,99.58
2023-08-29T20:16:53.780Z,99.63
2023-08-29T20:17:53.400Z,99.53
2023-08-29T20:18:53.341Z,99.53
2023-08-29T20:19:53.365Z,99.63
2023-08-29T20:20:53.331Z,99.84
2023-08-29T20:21:53.306Z,99.94
2023-08-29T20:22:53.285Z,99.99
2023-08-29T20:24:02.007Z,99.99
2023-08-29T20:24:54.268Z,99.99
2023-08-29T20:25:53.252Z,99.99
2023-08-29T20:26:53.232Z,99.99
2023-08-29T20:27:53.241Z,99.99
2023-08-29T20:28:53.212Z,99.72
2023-08-29T20:29:53.212Z,97.85
2023-08-29T20:30:53.217Z,93.75
2023-08-29T20:31:53.177Z,91.67
2023-08-29T20:32:53.216Z,91.41
2023-08-29T20:33:53.161Z,92.47
2023-08-29T20:34:53.151Z,93.52
2023-08-29T20:35:53.114Z,93.62
2023-08-29T20:36:53.117Z,94.07
2023-08-29T20:37:53.083Z,95.03
2023-08-29T20:38:53.084Z,95.68
2023-08-29T20:39:53.068Z,96.19
2023-08-29T20:40:53.044Z,96.44
2023-08-29T20:41:53.039Z,97.15
2023-08-29T20:42:53.075Z,97.86
2023-08-29T20:43:53.023Z,98.07
2023-08-29T20:44:52.992Z,98.27
2023-08-29T20:45:52.988Z,98.47
2023-08-29T20:46:52.971Z,98.62
2023-08-29T20:47:52.980Z,98.82
2023-08-29T20:48:52.990Z,98.92
2023-08-29T20:49:52.921Z,99.33
2023-08-29T20:50:52.906Z,99.74
2023-08-29T20:51:52.893Z,99.99
2023-08-29T20:52:52.894Z,99.99
2023-08-29T20:53:52.880Z,99.99
2023-08-29T20:54:52.857Z,99.99
2023-08-29T20:55:52.844Z,99.99
2023-08-29T20:56:52.823Z,99.99
2023-08-29T20:57:52.826Z,99.99
2023-08-29T20:58:52.812Z,99.99
2023-08-29T20:59:52.791Z,99.99
